sensor_id;sensor_type;location;lat;lon;timestamp;temperature;humidity
59857;DHT22;45733;52.668;6.860;2022-12-18T00:01:16;-3.20;99.90
59857;DHT22;45733;52.668;6.860;2022-12-18T00:03:42;-3.30;99.90
59857;DHT22;45733;52.668;6.860;2022-12-18T00:06:08;-3.40;99.90
59857;DHT22;45733;52.668;6.860;2022-12-18T00:08:34;-3.70;99.90
59857;DHT22;45733;52.668;6.860;2022-12-18T00:11:08;-3.80;99.90
59857;DHT22;45733;52.668;6.860;2022-12-18T00:13:34;-3.90;99.90
59857;DHT22;45733;52.668;6.860;2022-12-18T00:16:06;-4.00;99.90
59857;DHT22;45733;52.668;6.860;2022-12-18T00:18:32;-4.20;99.90
59857;DHT22;45733;52.668;6.860;2022-12-18T00:21:05;-4.30;99.90
59857;DHT22;45733;52.668;6.860;2022-12-18T00:23:32;-4.40;99.90
59857;DHT22;45733;52.668;6.860;2022-12-18T00:26:00;-4.50;99.90
59857;DHT22;45733;52.668;6.860;2022-12-18T00:28:27;-4.60;99.90
59857;DHT22;45733;52.668;6.860;2022-12-18T00:31:04;-4.60;99.90
59857;DHT22;45733;52.668;6.860;2022-12-18T00:33:30;-4.50;99.90
59857;DHT22;45733;52.668;6.860;2022-12-18T00:36:08;-4.40;99.90
59857;DHT22;45733;52.668;6.860;2022-12-18T00:38:35;-4.30;99.90
59857;DHT22;45733;52.668;6.860;2022-12-18T00:41:01;-4.30;99.90
59857;DHT22;45733;52.668;6.860;2022-12-18T00:43:27;-4.20;99.90
59857;DHT22;45733;52.668;6.860;2022-12-18T00:45:53;-4.30;99.90
59857;DHT22;45733;52.668;6.860;2022-12-18T00:48:20;-4.40;99.90
59857;DHT22;45733;52.668;6.860;2022-12-18T00:50:47;-4.30;99.90
59857;DHT22;45733;52.668;6.860;2022-12-18T00:53:13;-4.40;99.90
59857;DHT22;45733;52.668;6.860;2022-12-18T00:55:39;-4.20;99.90
59857;DHT22;45733;52.668;6.860;2022-12-18T00:58:06;-4.10;99.90
59857;DHT22;45733;52.668;6.860;2022-12-18T01:00:32;-4.00;99.90
59857;DHT22;45733;52.668;6.860;2022-12-18T01:02:58;-4.30;99.90
59857;DHT22;45733;52.668;6.860;2022-12-18T01:05:24;-4.30;99.90
59857;DHT22;45733;52.668;6.860;2022-12-18T01:07:50;-4.30;99.90
59857;DHT22;45733;52.668;6.860;2022-12-18T01:10:16;-4.20;99.90
59857;DHT22;45733;52.668;6.860;2022-12-18T01:12:43;-4.40;99.90
59857;DHT22;45733;52.668;6.860;2022-12-18T01:15:09;-4.40;99.90
59857;DHT22;45733;52.668;6.860;2022-12-18T01:17:35;-4.40;99.90
59857;DHT22;45733;52.668;6.860;2022-12-18T01:20:01;-4.40;99.90
59857;DHT22;45733;52.668;6.860;2022-12-18T01:22:27;-4.30;99.90
59857;DHT22;45733;52.668;6.860;2022-12-18T01:24:53;-4.40;99.90
59857;DHT22;45733;52.668;6.860;2022-12-18T01:27:19;-4.30;99.90
59857;DHT22;45733;52.668;6.860;2022-12-18T01:29:45;-4.40;99.90
59857;DHT22;45733;52.668;6.860;2022-12-18T01:32:11;-4.50;99.90
59857;DHT22;45733;52.668;6.860;2022-12-18T01:34:40;-4.40;99.90
59857;DHT22;45733;52.668;6.860;2022-12-18T01:37:07;-4.60;99.90
59857;DHT22;45733;52.668;6.860;2022-12-18T01:39:33;-4.60;99.90
59857;DHT22;45733;52.668;6.860;2022-12-18T01:42:00;-4.60;99.90
59857;DHT22;45733;52.668;6.860;2022-12-18T01:52:47;-4.60;99.90
59857;DHT22;45733;52.668;6.860;2022-12-18T01:55:16;-4.60;99.90
59857;DHT22;45733;52.668;6.860;2022-12-18T01:57:42;-4.80;99.90
59857;DHT22;45733;52.668;6.860;2022-12-18T02:00:12;-4.70;99.90
59857;DHT22;45733;52.668;6.860;2022-12-18T02:02:39;-4.80;99.90
59857;DHT22;45733;52.668;6.860;2022-12-18T02:05:06;-4.70;99.90
59857;DHT22;45733;52.668;6.860;2022-12-18T02:12:35;-4.80;99.90
59857;DHT22;45733;52.668;6.860;2022-12-18T02:15:15;-4.80;99.90
59857;DHT22;45733;52.668;6.860;2022-12-18T02:23:50;-5.00;99.90
59857;DHT22;45733;52.668;6.860;2022-12-18T02:26:22;-5.00;99.90
59857;DHT22;45733;52.668;6.860;2022-12-18T02:29:08;-5.10;99.90
59857;DHT22;45733;52.668;6.860;2022-12-18T02:31:43;-5.10;99.90
59857;DHT22;45733;52.668;6.860;2022-12-18T02:34:11;-5.10;99.90
59857;DHT22;45733;52.668;6.860;2022-12-18T02:36:40;-5.10;99.90
59857;DHT22;45733;52.668;6.860;2022-12-18T02:39:09;-5.10;99.90
59857;DHT22;45733;52.668;6.860;2022-12-18T02:41:36;-5.20;99.90
59857;DHT22;45733;52.668;6.860;2022-12-18T02:44:07;-5.20;99.90
59857;DHT22;45733;52.668;6.860;2022-12-18T02:46:41;-5.10;99.90
59857;DHT22;45733;52.668;6.860;2022-12-18T02:51:49;-5.10;99.90
59857;DHT22;45733;52.668;6.860;2022-12-18T03:00:17;-5.20;99.90
59857;DHT22;45733;52.668;6.860;2022-12-18T03:03:01;-5.10;99.90
59857;DHT22;45733;52.668;6.860;2022-12-18T03:05:50;-5.10;99.90
59857;DHT22;45733;52.668;6.860;2022-12-18T03:08:26;-5.20;99.90
59857;DHT22;45733;52.668;6.860;2022-12-18T03:11:10;-5.40;99.90
59857;DHT22;45733;52.668;6.860;2022-12-18T03:13:43;-5.30;99.90
59857;DHT22;45733;52.668;6.860;2022-12-18T03:16:14;-5.30;99.90
59857;DHT22;45733;52.668;6.860;2022-12-18T03:18:59;-5.40;99.90
59857;DHT22;45733;52.668;6.860;2022-12-18T03:21:33;-5.50;99.90
59857;DHT22;45733;52.668;6.860;2022-12-18T03:24:01;-5.40;99.90
59857;DHT22;45733;52.668;6.860;2022-12-18T03:26:32;-5.60;99.90
59857;DHT22;45733;52.668;6.860;2022-12-18T03:29:08;-5.50;99.90
59857;DHT22;45733;52.668;6.860;2022-12-18T03:31:34;-5.50;99.90
59857;DHT22;45733;52.668;6.860;2022-12-18T03:34:09;-5.40;99.90
59857;DHT22;45733;52.668;6.860;2022-12-18T03:36:35;-5.50;99.90
59857;DHT22;45733;52.668;6.860;2022-12-18T03:39:01;-5.40;99.90
59857;DHT22;45733;52.668;6.860;2022-12-18T03:42:43;-5.50;99.90
59857;DHT22;45733;52.668;6.860;2022-12-18T03:50:31;-5.50;99.90
59857;DHT22;45733;52.668;6.860;2022-12-18T03:55:47;-5.40;99.90
59857;DHT22;45733;52.668;6.860;2022-12-18T03:58:17;-5.50;99.90
59857;DHT22;45733;52.668;6.860;2022-12-18T04:00:45;-5.40;99.90
59857;DHT22;45733;52.668;6.860;2022-12-18T04:03:14;-5.50;99.90
59857;DHT22;45733;52.668;6.860;2022-12-18T04:05:42;-5.50;99.90
59857;DHT22;45733;52.668;6.860;2022-12-18T04:08:08;-5.50;99.90
59857;DHT22;45733;52.668;6.860;2022-12-18T04:10:35;-5.60;99.90
59857;DHT22;45733;52.668;6.860;2022-12-18T04:13:02;-5.50;99.90
59857;DHT22;45733;52.668;6.860;2022-12-18T04:15:27;-5.50;99.90
59857;DHT22;45733;52.668;6.860;2022-12-18T04:17:54;-5.50;99.90
59857;DHT22;45733;52.668;6.860;2022-12-18T04:20:20;-5.50;99.90
59857;DHT22;45733;52.668;6.860;2022-12-18T04:22:46;-5.60;99.90
59857;DHT22;45733;52.668;6.860;2022-12-18T04:25:12;-5.50;99.90
59857;DHT22;45733;52.668;6.860;2022-12-18T04:27:38;-5.50;99.90
59857;DHT22;45733;52.668;6.860;2022-12-18T04:30:06;-5.50;99.90
59857;DHT22;45733;52.668;6.860;2022-12-18T04:32:33;-5.50;99.90
59857;DHT22;45733;52.668;6.860;2022-12-18T04:34:59;-5.50;99.90
59857;DHT22;45733;52.668;6.860;2022-12-18T04:37:25;-5.50;99.90
59857;DHT22;45733;52.668;6.860;2022-12-18T04:39:51;-5.50;99.90
59857;DHT22;45733;52.668;6.860;2022-12-18T04:42:17;-5.60;99.90
59857;DHT22;45733;52.668;6.860;2022-12-18T04:44:43;-5.50;99.90
59857;DHT22;45733;52.668;6.860;2022-12-18T04:47:09;-5.70;99.90
59857;DHT22;45733;52.668;6.860;2022-12-18T04:49:34;-5.70;99.90
59857;DHT22;45733;52.668;6.860;2022-12-18T04:52:00;-5.60;99.90
59857;DHT22;45733;52.668;6.860;2022-12-18T04:54:26;-5.60;99.90
59857;DHT22;45733;52.668;6.860;2022-12-18T04:56:52;-5.70;99.90
59857;DHT22;45733;52.668;6.860;2022-12-18T04:59:18;-5.80;99.90
59857;DHT22;45733;52.668;6.860;2022-12-18T05:01:43;-5.80;99.90
59857;DHT22;45733;52.668;6.860;2022-12-18T05:04:09;-6.00;99.90
59857;DHT22;45733;52.668;6.860;2022-12-18T05:06:35;-6.00;99.90
59857;DHT22;45733;52.668;6.860;2022-12-18T05:09:01;-6.00;99.90
59857;DHT22;45733;52.668;6.860;2022-12-18T05:11:27;-6.10;99.90
59857;DHT22;45733;52.668;6.860;2022-12-18T05:13:53;-6.10;99.90
59857;DHT22;45733;52.668;6.860;2022-12-18T05:16:19;-6.20;99.90
59857;DHT22;45733;52.668;6.860;2022-12-18T05:18:45;-6.20;99.90
59857;DHT22;45733;52.668;6.860;2022-12-18T05:21:11;-6.20;99.90
59857;DHT22;45733;52.668;6.860;2022-12-18T05:23:37;-6.30;99.90
59857;DHT22;45733;52.668;6.860;2022-12-18T05:26:05;-6.20;99.90
59857;DHT22;45733;52.668;6.860;2022-12-18T05:28:32;-6.20;99.90
59857;DHT22;45733;52.668;6.860;2022-12-18T05:31:00;-6.30;99.90
59857;DHT22;45733;52.668;6.860;2022-12-18T05:33:30;-6.40;99.90
59857;DHT22;45733;52.668;6.860;2022-12-18T05:36:00;-6.50;99.90
59857;DHT22;45733;52.668;6.860;2022-12-18T05:38:30;-6.50;99.90
59857;DHT22;45733;52.668;6.860;2022-12-18T05:40:57;-6.50;99.90
59857;DHT22;45733;52.668;6.860;2022-12-18T05:43:23;-6.50;99.90
59857;DHT22;45733;52.668;6.860;2022-12-18T05:45:50;-6.50;99.90
59857;DHT22;45733;52.668;6.860;2022-12-18T05:48:16;-6.50;99.90
59857;DHT22;45733;52.668;6.860;2022-12-18T05:50:44;-6.50;99.90
59857;DHT22;45733;52.668;6.860;2022-12-18T05:53:15;-6.40;99.90
59857;DHT22;45733;52.668;6.860;2022-12-18T05:55:42;-6.40;99.90
59857;DHT22;45733;52.668;6.860;2022-12-18T05:58:11;-6.30;99.90
59857;DHT22;45733;52.668;6.860;2022-12-18T06:00:42;-6.30;99.90
59857;DHT22;45733;52.668;6.860;2022-12-18T06:03:10;-6.20;99.90
59857;DHT22;45733;52.668;6.860;2022-12-18T06:05:41;-6.20;99.90
59857;DHT22;45733;52.668;6.860;2022-12-18T06:08:08;-6.20;99.90
59857;DHT22;45733;52.668;6.860;2022-12-18T06:10:34;-6.20;99.90
59857;DHT22;45733;52.668;6.860;2022-12-18T06:13:00;-6.20;99.90
59857;DHT22;45733;52.668;6.860;2022-12-18T06:15:26;-6.20;99.90
59857;DHT22;45733;52.668;6.860;2022-12-18T06:17:52;-6.30;99.90
59857;DHT22;45733;52.668;6.860;2022-12-18T06:20:18;-6.30;99.90
59857;DHT22;45733;52.668;6.860;2022-12-18T06:22:44;-6.30;99.90
59857;DHT22;45733;52.668;6.860;2022-12-18T06:25:10;-6.30;99.90
59857;DHT22;45733;52.668;6.860;2022-12-18T06:27:36;-6.30;99.90
59857;DHT22;45733;52.668;6.860;2022-12-18T06:30:03;-6.30;99.90
59857;DHT22;45733;52.668;6.860;2022-12-18T06:32:29;-6.30;99.90
59857;DHT22;45733;52.668;6.860;2022-12-18T06:34:55;-6.40;99.90
59857;DHT22;45733;52.668;6.860;2022-12-18T06:37:21;-6.40;99.90
59857;DHT22;45733;52.668;6.860;2022-12-18T06:39:50;-6.40;99.90
59857;DHT22;45733;52.668;6.860;2022-12-18T06:42:16;-6.40;99.90
59857;DHT22;45733;52.668;6.860;2022-12-18T06:44:42;-6.30;99.90
59857;DHT22;45733;52.668;6.860;2022-12-18T06:47:07;-6.30;99.90
59857;DHT22;45733;52.668;6.860;2022-12-18T06:49:33;-6.40;99.90
59857;DHT22;45733;52.668;6.860;2022-12-18T06:51:59;-6.50;99.90
59857;DHT22;45733;52.668;6.860;2022-12-18T06:54:25;-6.40;99.90
59857;DHT22;45733;52.668;6.860;2022-12-18T06:56:51;-6.40;99.90
59857;DHT22;45733;52.668;6.860;2022-12-18T06:59:17;-6.40;99.90
59857;DHT22;45733;52.668;6.860;2022-12-18T07:01:44;-6.40;99.90
59857;DHT22;45733;52.668;6.860;2022-12-18T07:04:10;-6.30;99.90
59857;DHT22;45733;52.668;6.860;2022-12-18T07:06:36;-6.30;99.90
59857;DHT22;45733;52.668;6.860;2022-12-18T07:09:02;-6.30;99.90
59857;DHT22;45733;52.668;6.860;2022-12-18T07:11:27;-6.30;99.90
59857;DHT22;45733;52.668;6.860;2022-12-18T07:13:54;-6.30;99.90
59857;DHT22;45733;52.668;6.860;2022-12-18T07:16:21;-6.30;99.90
59857;DHT22;45733;52.668;6.860;2022-12-18T07:18:47;-6.40;99.90
59857;DHT22;45733;52.668;6.860;2022-12-18T07:21:15;-6.30;99.90
59857;DHT22;45733;52.668;6.860;2022-12-18T07:23:41;-6.20;99.90
59857;DHT22;45733;52.668;6.860;2022-12-18T07:26:10;-6.30;99.90
59857;DHT22;45733;52.668;6.860;2022-12-18T07:28:38;-6.30;99.90
59857;DHT22;45733;52.668;6.860;2022-12-18T07:31:16;-6.20;99.90
59857;DHT22;45733;52.668;6.860;2022-12-18T07:33:43;-6.10;99.90
59857;DHT22;45733;52.668;6.860;2022-12-18T07:36:09;-6.20;99.90
59857;DHT22;45733;52.668;6.860;2022-12-18T07:38:35;-6.10;99.90
59857;DHT22;45733;52.668;6.860;2022-12-18T07:41:07;-6.10;99.90
59857;DHT22;45733;52.668;6.860;2022-12-18T07:43:34;-6.00;99.90
59857;DHT22;45733;52.668;6.860;2022-12-18T07:46:00;-6.10;99.90
59857;DHT22;45733;52.668;6.860;2022-12-18T07:48:27;-6.10;99.90
59857;DHT22;45733;52.668;6.860;2022-12-18T07:50:52;-6.10;99.90
59857;DHT22;45733;52.668;6.860;2022-12-18T07:53:18;-6.00;99.90
59857;DHT22;45733;52.668;6.860;2022-12-18T07:55:44;-6.00;99.90
59857;DHT22;45733;52.668;6.860;2022-12-18T07:58:10;-5.90;99.90
59857;DHT22;45733;52.668;6.860;2022-12-18T08:00:36;-5.90;99.90
59857;DHT22;45733;52.668;6.860;2022-12-18T08:03:02;-5.90;99.90
59857;DHT22;45733;52.668;6.860;2022-12-18T08:05:28;-5.80;99.90
59857;DHT22;45733;52.668;6.860;2022-12-18T08:07:54;-5.70;99.90
59857;DHT22;45733;52.668;6.860;2022-12-18T08:10:20;-5.60;99.90
59857;DHT22;45733;52.668;6.860;2022-12-18T08:12:49;-5.50;99.90
59857;DHT22;45733;52.668;6.860;2022-12-18T08:15:15;-5.40;99.90
59857;DHT22;45733;52.668;6.860;2022-12-18T08:17:41;-5.40;99.90
59857;DHT22;45733;52.668;6.860;2022-12-18T08:20:07;-5.40;99.90
59857;DHT22;45733;52.668;6.860;2022-12-18T08:22:34;-5.40;99.90
59857;DHT22;45733;52.668;6.860;2022-12-18T08:25:08;-5.30;99.90
59857;DHT22;45733;52.668;6.860;2022-12-18T08:27:34;-5.20;99.90
59857;DHT22;45733;52.668;6.860;2022-12-18T08:30:00;-5.20;99.90
59857;DHT22;45733;52.668;6.860;2022-12-18T08:32:27;-5.20;99.90
59857;DHT22;45733;52.668;6.860;2022-12-18T08:34:54;-5.10;99.90
59857;DHT22;45733;52.668;6.860;2022-12-18T08:37:20;-5.00;99.90
59857;DHT22;45733;52.668;6.860;2022-12-18T08:39:45;-5.00;99.90
59857;DHT22;45733;52.668;6.860;2022-12-18T08:42:11;-5.00;99.90
59857;DHT22;45733;52.668;6.860;2022-12-18T08:44:55;-4.90;99.90
59857;DHT22;45733;52.668;6.860;2022-12-18T08:47:21;-4.90;99.90
59857;DHT22;45733;52.668;6.860;2022-12-18T08:49:47;-4.80;99.90
59857;DHT22;45733;52.668;6.860;2022-12-18T08:52:13;-4.70;99.90
59857;DHT22;45733;52.668;6.860;2022-12-18T08:54:39;-4.60;99.90
59857;DHT22;45733;52.668;6.860;2022-12-18T08:57:05;-4.50;99.90
59857;DHT22;45733;52.668;6.860;2022-12-18T08:59:31;-4.40;99.90
59857;DHT22;45733;52.668;6.860;2022-12-18T09:01:57;-4.20;99.90
59857;DHT22;45733;52.668;6.860;2022-12-18T09:04:23;-4.10;99.90
59857;DHT22;45733;52.668;6.860;2022-12-18T09:06:49;-3.90;99.90
59857;DHT22;45733;52.668;6.860;2022-12-18T09:09:15;-3.90;99.90
59857;DHT22;45733;52.668;6.860;2022-12-18T09:11:41;-3.80;99.90
59857;DHT22;45733;52.668;6.860;2022-12-18T09:14:07;-3.60;99.90
59857;DHT22;45733;52.668;6.860;2022-12-18T09:16:33;-3.50;99.90
59857;DHT22;45733;52.668;6.860;2022-12-18T09:19:01;-3.40;99.90
59857;DHT22;45733;52.668;6.860;2022-12-18T09:21:30;-3.40;99.90
59857;DHT22;45733;52.668;6.860;2022-12-18T09:23:56;-3.30;99.90
59857;DHT22;45733;52.668;6.860;2022-12-18T09:26:23;-3.30;99.90
59857;DHT22;45733;52.668;6.860;2022-12-18T09:28:50;-3.30;99.90
59857;DHT22;45733;52.668;6.860;2022-12-18T09:31:18;-3.10;99.90
59857;DHT22;45733;52.668;6.860;2022-12-18T09:33:44;-3.00;99.90
59857;DHT22;45733;52.668;6.860;2022-12-18T09:36:13;-2.90;99.90
59857;DHT22;45733;52.668;6.860;2022-12-18T09:38:39;-2.80;99.90
59857;DHT22;45733;52.668;6.860;2022-12-18T09:41:29;-2.80;99.90
59857;DHT22;45733;52.668;6.860;2022-12-18T09:44:01;-2.60;99.90
59857;DHT22;45733;52.668;6.860;2022-12-18T09:46:36;-2.50;99.90
59857;DHT22;45733;52.668;6.860;2022-12-18T09:49:09;-2.60;99.90
59857;DHT22;45733;52.668;6.860;2022-12-18T09:51:47;-2.50;99.90
59857;DHT22;45733;52.668;6.860;2022-12-18T09:54:22;-2.50;99.90
59857;DHT22;45733;52.668;6.860;2022-12-18T09:56:50;-2.50;99.90
59857;DHT22;45733;52.668;6.860;2022-12-18T09:59:32;-2.30;99.90
59857;DHT22;45733;52.668;6.860;2022-12-18T10:02:15;-2.30;99.90
59857;DHT22;45733;52.668;6.860;2022-12-18T10:04:42;-2.20;99.90
59857;DHT22;45733;52.668;6.860;2022-12-18T10:07:40;-2.10;99.90
59857;DHT22;45733;52.668;6.860;2022-12-18T10:12:54;-2.10;99.90
59857;DHT22;45733;52.668;6.860;2022-12-18T10:18:30;-1.90;99.90
59857;DHT22;45733;52.668;6.860;2022-12-18T10:21:30;-1.80;99.90
59857;DHT22;45733;52.668;6.860;2022-12-18T10:23:58;-1.80;99.90
59857;DHT22;45733;52.668;6.860;2022-12-18T10:26:28;-1.80;99.90
59857;DHT22;45733;52.668;6.860;2022-12-18T10:28:57;-1.90;99.90
59857;DHT22;45733;52.668;6.860;2022-12-18T10:31:24;-1.90;99.90
59857;DHT22;45733;52.668;6.860;2022-12-18T10:33:50;-1.90;99.90
59857;DHT22;45733;52.668;6.860;2022-12-18T10:36:16;-1.90;99.90
59857;DHT22;45733;52.668;6.860;2022-12-18T10:38:42;-1.90;99.90
59857;DHT22;45733;52.668;6.860;2022-12-18T10:43:44;-1.80;99.90
59857;DHT22;45733;52.668;6.860;2022-12-18T10:51:29;-1.60;99.90
59857;DHT22;45733;52.668;6.860;2022-12-18T10:53:57;-1.50;99.90
59857;DHT22;45733;52.668;6.860;2022-12-18T10:56:26;-1.50;99.90
59857;DHT22;45733;52.668;6.860;2022-12-18T11:01:22;-1.40;99.90
59857;DHT22;45733;52.668;6.860;2022-12-18T11:06:24;-1.30;99.90
59857;DHT22;45733;52.668;6.860;2022-12-18T11:09:05;-1.20;99.90
59857;DHT22;45733;52.668;6.860;2022-12-18T11:11:32;-1.20;99.90
59857;DHT22;45733;52.668;6.860;2022-12-18T11:14:22;-1.20;99.90
59857;DHT22;45733;52.668;6.860;2022-12-18T11:16:50;-1.20;99.90
59857;DHT22;45733;52.668;6.860;2022-12-18T11:21:50;-1.10;99.90
59857;DHT22;45733;52.668;6.860;2022-12-18T11:24:30;-1.10;99.90
59857;DHT22;45733;52.668;6.860;2022-12-18T11:27:02;-1.00;99.90
59857;DHT22;45733;52.668;6.860;2022-12-18T11:29:39;-1.00;99.90
59857;DHT22;45733;52.668;6.860;2022-12-18T11:34:44;-0.90;99.90
59857;DHT22;45733;52.668;6.860;2022-12-18T11:37:13;-0.90;99.90
59857;DHT22;45733;52.668;6.860;2022-12-18T11:39:55;-0.80;99.90
59857;DHT22;45733;52.668;6.860;2022-12-18T11:42:40;-0.80;99.90
59857;DHT22;45733;52.668;6.860;2022-12-18T11:50:51;-0.60;99.90
59857;DHT22;45733;52.668;6.860;2022-12-18T11:53:18;-0.60;99.90
59857;DHT22;45733;52.668;6.860;2022-12-18T11:58:50;-0.50;99.90
59857;DHT22;45733;52.668;6.860;2022-12-18T12:01:51;-0.50;99.90
59857;DHT22;45733;52.668;6.860;2022-12-18T12:04:46;-0.50;99.90
59857;DHT22;45733;52.668;6.860;2022-12-18T12:07:43;-0.40;99.90
59857;DHT22;45733;52.668;6.860;2022-12-18T12:13:28;-0.40;99.90
59857;DHT22;45733;52.668;6.860;2022-12-18T12:21:13;-0.20;99.90
59857;DHT22;45733;52.668;6.860;2022-12-18T12:36:13;-0.20;99.90
59857;DHT22;45733;52.668;6.860;2022-12-18T12:38:35;-0.20;99.90
59857;DHT22;45733;52.668;6.860;2022-12-18T12:41:09;-0.10;99.90
59857;DHT22;45733;52.668;6.860;2022-12-18T12:43:58;-0.10;99.90
59857;DHT22;45733;52.668;6.860;2022-12-18T12:46:26;-0.10;99.90
59857;DHT22;45733;52.668;6.860;2022-12-18T12:49:19;-0.10;99.90
59857;DHT22;45733;52.668;6.860;2022-12-18T12:52:04;-0.10;99.90
59857;DHT22;45733;52.668;6.860;2022-12-18T12:54:32;-0.10;99.90
59857;DHT22;45733;52.668;6.860;2022-12-18T13:02:58;0.10;99.90
59857;DHT22;45733;52.668;6.860;2022-12-18T13:08:24;0.10;99.90
59857;DHT22;45733;52.668;6.860;2022-12-18T13:10:53;0.10;99.90
59857;DHT22;45733;52.668;6.860;2022-12-18T13:13:51;0.10;99.90
59857;DHT22;45733;52.668;6.860;2022-12-18T13:16:22;0.10;99.90
59857;DHT22;45733;52.668;6.860;2022-12-18T13:18:56;0.10;99.90
59857;DHT22;45733;52.668;6.860;2022-12-18T13:21:30;0.10;99.90
59857;DHT22;45733;52.668;6.860;2022-12-18T13:24:24;0.20;99.90
59857;DHT22;45733;52.668;6.860;2022-12-18T13:26:51;0.20;99.90
59857;DHT22;45733;52.668;6.860;2022-12-18T13:29:46;0.20;99.90
59857;DHT22;45733;52.668;6.860;2022-12-18T13:32:25;0.20;99.90
59857;DHT22;45733;52.668;6.860;2022-12-18T13:35:37;0.20;99.90
59857;DHT22;45733;52.668;6.860;2022-12-18T13:37:59;0.20;99.90
59857;DHT22;45733;52.668;6.860;2022-12-18T13:43:48;0.10;99.90
59857;DHT22;45733;52.668;6.860;2022-12-18T13:51:44;0.00;99.90
59857;DHT22;45733;52.668;6.860;2022-12-18T13:54:41;0.00;99.90
59857;DHT22;45733;52.668;6.860;2022-12-18T13:57:29;0.00;99.90
59857;DHT22;45733;52.668;6.860;2022-12-18T13:59:57;-0.10;99.90
59857;DHT22;45733;52.668;6.860;2022-12-18T14:02:25;-0.10;99.90
59857;DHT22;45733;52.668;6.860;2022-12-18T14:04:54;-0.10;99.90
59857;DHT22;45733;52.668;6.860;2022-12-18T14:07:25;-0.20;99.90
59857;DHT22;45733;52.668;6.860;2022-12-18T14:09:55;-0.20;99.90
59857;DHT22;45733;52.668;6.860;2022-12-18T14:12:27;-0.20;99.90
59857;DHT22;45733;52.668;6.860;2022-12-18T14:20:43;-0.40;99.90
59857;DHT22;45733;52.668;6.860;2022-12-18T14:25:56;-0.40;99.90
59857;DHT22;45733;52.668;6.860;2022-12-18T14:28:22;-0.50;99.90
59857;DHT22;45733;52.668;6.860;2022-12-18T14:30:48;-0.50;99.90
59857;DHT22;45733;52.668;6.860;2022-12-18T14:33:21;-0.50;99.90
59857;DHT22;45733;52.668;6.860;2022-12-18T14:36:02;-0.50;99.90
59857;DHT22;45733;52.668;6.860;2022-12-18T14:41:14;-0.50;99.90
59857;DHT22;45733;52.668;6.860;2022-12-18T14:43:42;-0.60;99.90
59857;DHT22;45733;52.668;6.860;2022-12-18T14:46:28;-0.60;99.90
59857;DHT22;45733;52.668;6.860;2022-12-18T14:48:56;-0.60;99.90
59857;DHT22;45733;52.668;6.860;2022-12-18T14:51:27;-0.60;99.90
59857;DHT22;45733;52.668;6.860;2022-12-18T14:54:02;-0.60;99.90
59857;DHT22;45733;52.668;6.860;2022-12-18T14:56:34;-0.70;99.90
59857;DHT22;45733;52.668;6.860;2022-12-18T14:59:17;-0.60;99.90
59857;DHT22;45733;52.668;6.860;2022-12-18T15:01:48;-0.70;99.90
59857;DHT22;45733;52.668;6.860;2022-12-18T15:04:46;-0.70;99.90
59857;DHT22;45733;52.668;6.860;2022-12-18T15:07:21;-0.70;99.90
59857;DHT22;45733;52.668;6.860;2022-12-18T15:10:24;-0.70;99.90
59857;DHT22;45733;52.668;6.860;2022-12-18T15:23:20;-0.80;99.90
59857;DHT22;45733;52.668;6.860;2022-12-18T15:25:55;-0.70;99.90
59857;DHT22;45733;52.668;6.860;2022-12-18T15:28:38;-0.70;99.90
59857;DHT22;45733;52.668;6.860;2022-12-18T15:33:44;-0.80;99.90
59857;DHT22;45733;52.668;6.860;2022-12-18T15:36:15;-0.80;99.90
59857;DHT22;45733;52.668;6.860;2022-12-18T15:38:54;-0.80;99.90
59857;DHT22;45733;52.668;6.860;2022-12-18T15:41:22;-0.80;99.90
59857;DHT22;45733;52.668;6.860;2022-12-18T15:43:49;-0.80;99.90
59857;DHT22;45733;52.668;6.860;2022-12-18T15:46:18;-0.70;99.90
59857;DHT22;45733;52.668;6.860;2022-12-18T15:48:46;-0.80;99.90
59857;DHT22;45733;52.668;6.860;2022-12-18T15:51:26;-0.80;99.90
59857;DHT22;45733;52.668;6.860;2022-12-18T15:53:54;-0.80;99.90
59857;DHT22;45733;52.668;6.860;2022-12-18T15:56:21;-0.70;99.90
59857;DHT22;45733;52.668;6.860;2022-12-18T15:59:24;-0.80;99.90
59857;DHT22;45733;52.668;6.860;2022-12-18T16:01:51;-0.80;99.90
59857;DHT22;45733;52.668;6.860;2022-12-18T16:04:20;-0.80;99.90
59857;DHT22;45733;52.668;6.860;2022-12-18T16:06:50;-0.80;99.90
59857;DHT22;45733;52.668;6.860;2022-12-18T16:09:17;-0.80;99.90
59857;DHT22;45733;52.668;6.860;2022-12-18T16:11:44;-0.70;99.90
59857;DHT22;45733;52.668;6.860;2022-12-18T16:14:21;-0.80;99.90
59857;DHT22;45733;52.668;6.860;2022-12-18T16:16:50;-0.70;99.90
59857;DHT22;45733;52.668;6.860;2022-12-18T16:19:16;-0.80;99.90
59857;DHT22;45733;52.668;6.860;2022-12-18T16:21:42;-0.70;99.90
59857;DHT22;45733;52.668;6.860;2022-12-18T16:24:16;-0.80;99.90
59857;DHT22;45733;52.668;6.860;2022-12-18T16:26:43;-0.80;99.90
59857;DHT22;45733;52.668;6.860;2022-12-18T16:29:09;-0.80;99.90
59857;DHT22;45733;52.668;6.860;2022-12-18T16:31:35;-0.80;99.90
59857;DHT22;45733;52.668;6.860;2022-12-18T16:36:37;-0.80;99.90
59857;DHT22;45733;52.668;6.860;2022-12-18T16:39:03;-0.80;99.90
59857;DHT22;45733;52.668;6.860;2022-12-18T16:41:29;-0.80;99.90
59857;DHT22;45733;52.668;6.860;2022-12-18T16:43:59;-0.80;99.90
59857;DHT22;45733;52.668;6.860;2022-12-18T16:46:25;-0.80;99.90
59857;DHT22;45733;52.668;6.860;2022-12-18T16:48:52;-0.80;99.90
59857;DHT22;45733;52.668;6.860;2022-12-18T16:51:18;-0.70;99.90
59857;DHT22;45733;52.668;6.860;2022-12-18T16:53:44;-0.70;99.90
59857;DHT22;45733;52.668;6.860;2022-12-18T16:56:09;-0.70;99.90
59857;DHT22;45733;52.668;6.860;2022-12-18T16:58:35;-0.60;99.90
59857;DHT22;45733;52.668;6.860;2022-12-18T17:01:07;-0.60;99.90
59857;DHT22;45733;52.668;6.860;2022-12-18T17:03:34;-0.60;99.90
59857;DHT22;45733;52.668;6.860;2022-12-18T17:06:04;-0.60;99.90
59857;DHT22;45733;52.668;6.860;2022-12-18T17:08:31;-0.60;99.90
59857;DHT22;45733;52.668;6.860;2022-12-18T17:11:03;-0.60;99.90
59857;DHT22;45733;52.668;6.860;2022-12-18T17:13:29;-0.60;99.90
59857;DHT22;45733;52.668;6.860;2022-12-18T17:16:01;-0.60;99.90
59857;DHT22;45733;52.668;6.860;2022-12-18T17:18:28;-0.60;99.90
59857;DHT22;45733;52.668;6.860;2022-12-18T17:20:59;-0.50;99.90
59857;DHT22;45733;52.668;6.860;2022-12-18T17:23:26;-0.60;99.90
59857;DHT22;45733;52.668;6.860;2022-12-18T17:25:59;-0.50;99.90
59857;DHT22;45733;52.668;6.860;2022-12-18T17:28:26;-0.50;99.90
59857;DHT22;45733;52.668;6.860;2022-12-18T17:30:53;-0.50;99.90
59857;DHT22;45733;52.668;6.860;2022-12-18T17:33:20;-0.50;99.90
59857;DHT22;45733;52.668;6.860;2022-12-18T17:35:46;-0.50;99.90
59857;DHT22;45733;52.668;6.860;2022-12-18T17:38:13;-0.50;99.90
59857;DHT22;45733;52.668;6.860;2022-12-18T17:40:39;-0.40;99.90
59857;DHT22;45733;52.668;6.860;2022-12-18T17:43:06;-0.40;99.90
59857;DHT22;45733;52.668;6.860;2022-12-18T17:45:35;-0.40;99.90
59857;DHT22;45733;52.668;6.860;2022-12-18T17:48:03;-0.50;99.90
59857;DHT22;45733;52.668;6.860;2022-12-18T17:50:29;-0.40;99.90
59857;DHT22;45733;52.668;6.860;2022-12-18T17:52:57;-0.40;99.90
59857;DHT22;45733;52.668;6.860;2022-12-18T17:55:23;-0.40;99.90
59857;DHT22;45733;52.668;6.860;2022-12-18T17:57:49;-0.40;99.90
59857;DHT22;45733;52.668;6.860;2022-12-18T18:00:15;-0.40;99.90
59857;DHT22;45733;52.668;6.860;2022-12-18T18:02:41;-0.40;99.90
59857;DHT22;45733;52.668;6.860;2022-12-18T18:05:07;-0.40;99.90